Logo AVAMET
Benvolgut visitant, si us plau, ingressa Recuperar contrasenya
AVAMET paisatges

Inforatge Rocafort

Dades diàries. Acumulats / Últims 30 dies disponibles

Data Temperatura (°C) Humitat rel. (%) Pressió rel. (hPa) Vent (km/h) Precipitació
Mínima Mitjana Màxima Amplitud
tèrmica
Mínima Mitjana Màxima Mínima Mitjana Màxima Predom. Mitjana Ràfega
màxima
Total
(mm)
Índex-n
Mínima Mitjana Màxima Mínima Mitjana Màxima n
0 a 1
P0 max
mm 5'
Dades mensuals acumulades fins l'últim dia disponible
02/2020 5,6 9,1 13,7 13,9 14,3 20,5 26,7 21,1 26 70 100 1.013 1.026 1.035   3,3 46,7 1,2
Dades anuals acumulades fins l'últim dia disponible
2020 2,7 7,8 14,4 12,2 9,4 18,1 26,7 24,0 26 72 100 1.013 1.025 1.035   4,4 74,0 110,8
Últims 30 dies disponibles
27-02-2020 8,0     16,2     24,9 16,9 48 70 99 1.016 1.019 1.021 W 8,5 38,6 0,0
26-02-2020 9,7     14,9     23,1 13,4 46 79 97 1.016 1.018 1.021 W 3,2 20,9 0,0
25-02-2020 9,6     16,2     25,1 15,5 43 75 98 1.013 1.016 1.020 W 4,5 38,6 0,0
24-02-2020 7,9     14,2     22,4 14,5 60 82 99 1.020 1.025 1.031 W 2,7 14,5 0,0
23-02-2020 6,3     12,9     21,4 15,1 26 73 100 1.030 1.033 1.035 W 2,6 16,1 0,0
22-02-2020 6,4     12,2     18,8 12,4 26 70 100 1.030 1.032 1.035 WNW 2,1 12,9 0,0
21-02-2020 6,6     11,3     17,3 10,7 26 59 99 1.027 1.030 1.032 W 1,9 16,1 0,2
20-02-2020 6,6     11,6     18,2 11,6 26 62 99 1.024 1.026 1.029 WNW 3,1 17,7 0,0
19-02-2020 10,2     12,8     16,8 6,6 26 64 99 1.029 1.031 1.033 WNW 2,1 17,7 0,2
18-02-2020 11,3     12,6     14,3 3,0 26 55 99 1.030 1.031 1.033 NE 2,6 25,7 0,4
17-02-2020 8,4     12,7     20,1 11,7 26 47 98 1.022 1.025 1.030 ENE 2,6 24,1 0,0
16-02-2020 9,2     11,6     16,1 6,9 26 41 92 1.025 1.026 1.028 ENE 1,9 14,5 0,0
15-02-2020 7,1     12,6     18,6 11,5 26 67 97 1.025 1.026 1.028 WNW 2,6 16,1 0,0
14-02-2020 9,0     14,5     21,6 12,6 32 75 98 1.024 1.025 1.026 WNW 3,2 17,7 0,0
13-02-2020 8,9     13,4     19,1 10,2 26 61 97 1.020 1.022 1.024 ENE 2,1 11,3 0,0
12-02-2020 11,2     14,1     19,8 8,6 26 84 97 1.023 1.024 1.025 ENE 3,2 22,5 0,0
11-02-2020 12,2     16,4     24,2 12,0 62 84 97 1.021 1.024 1.026 W 3,4 16,1 0,0
10-02-2020 8,7     16,7     24,8 16,1 38 83 98 1.025 1.027 1.030 W 4,5 22,5 0,0
09-02-2020 7,0     11,6     17,6 10,6 26 58 98 1.027 1.029 1.031 WNW 2,1 12,9 0,0
08-02-2020 5,6     10,8     17,4 11,8 26 59 98 1.023 1.025 1.028 W 2,1 11,3 0,0
07-02-2020 7,9     11,1     14,9 7,0 40 71 97 1.023 1.025 1.026 WNW 2,4 11,3 0,0
06-02-2020 6,1     10,8     15,3 9,2 38 70 97 1.025 1.027 1.029 WNW 2,9 14,5 0,0
05-02-2020 8,3     12,3     17,0 8,7 27 79 97 1.026 1.029 1.031 ENE 2,4 19,3 0,4
04-02-2020 13,3     18,8     26,7 13,4 53 74 96 1.021 1.024 1.027 W 5,5 27,4 0,0
03-02-2020 13,3     17,6     26,6 13,3 62 84 96 1.026 1.027 1.029 W 3,5 22,5 0,0
02-02-2020 13,4     17,6     24,6 11,2 56 82 95 1.026 1.027 1.028 W 4,5 25,7 0,0
01-02-2020 13,7     18,8     25,6 11,9 66 85 96 1.020 1.022 1.026 W 7,9 46,7 0,0
31-01-2020 13,8     16,6     22,3 8,5 70 87 96 1.020 1.022 1.023 O 8,6 41,8 0,0
30-01-2020 12,8     16,6     20,9 8,1 66 82 97 1.019 1.021 1.023 W 10,3 46,7 0,0
29-01-2020 14,4     16,9     20,9 6,5 75 84 92 1.020 1.022 1.023 W 9,5 35,4 0,0
Últims 13 mesos disponibles
01/2020 2,7 6,7 14,4 10,7 9,4 16,0 22,3 19,6 32 75 93 1.017 1.023 1.032 W 5,4 74,0 109,6
12/2019 6,6 10,6 17,1 14,2 12,6 18,5 24,4 17,8 27 68 90 1.007 1.019 1.028 W 7,5 96,6 63,8
11/2019 5,6 11,7 20,6 15,6 15,8 19,9 29,1 23,5 45 56 65 998 1.010 1.018 W 10,2 75,6 2,2
10/2019 11,4 15,7 20,5 20,0 16,2 25,5 34,8 23,4 20 51 76 1.007 1.016 1.022 WNW 4,3 43,5 20,8
09/2019 15,6 20,0 23,2 23,6 20,9 27,9 34,4 18,8 43 72 84 1.010 1.017 1.024 SSE 4,9 55,6 77,0
08/2019 17,3 22,3 25,7 26,4 27,2 31,0 41,4 24,1 21 70 79 1.010 1.015 1.020 SSE 4,6 63,0 7,8
07/2019 20,5 22,4 24,1 26,6 27,8 31,2 38,3 17,8 51 66 79 1.005 1.014 1.021 SE 4,9 53,7 12,6
06/2019 12,9 17,8 21,4 22,5 21,8 27,2 36,5 23,6 40 64 81 1.008 1.015 1.022 SE 4,7 64,8 0,0
05/2019 9,7 14,4 20,7 18,7 18,8 23,2 32,5 22,8 45 66 87 1.005 1.015 1.024 SSE 4,3 64,8 25,4
04/2019 8,3 11,3 14,4 15,3 15,3 20,1 29,7 21,4 41 65 96 999 1.013 1.025 S 7,0 66,7 55,2
03/2019 7,1 9,4 15,9 14,3 12,5 20,1 28,9 21,8 38 60 87 1.011 1.023 1.029 S 4,3 56,3 15,8
02/2019 3,3 6,9 11,1 12,0 12,5 18,1 25,7 22,4 34 64 78 994 1.025 1.034 S 4,9 72,4 0,0
01/2019 2,6 6,4 13,1 11,1 12,1 16,8 20,4 17,8 39 57 77 1.001 1.019 1.030 SSO 5,6 66,7 0,4
Tots els anys disponibles
2019 2,6 14,2 25,7 18,5 12,1 23,4 41,4 38,8 20 63 96 994 1.017 1.034 SSE 5,6 96,6 281,0
2018 2,7 14,7 24,9 18,6 6,3 23,0 37,1 34,4 33 67 96 993 1.015 1.035 SE 5,5 80,6 524,2
2017 1,6 14,5 25,8 18,5 9,3 23,1 37,2 35,6 28 66 92 997 1.018 1.036 SSE 2,6 84,0 269,0
2016 2,1 14,7 25,4 18,9 11,2 23,1 36,2 34,1 32 64 90 995 1.018 1.036 87,0 280,6
2015 1,0 14,6 20,8 19,1 22,6 23,5 41,9 40,9 55 64 74 1.015 1.019 1.030 91,0 230,0
Temperatura (°C)
Humitat relativa (%)
Velocitat del vent i ràfega màxima (km/h)
Direcció del vent (°)
Pressió (hPa)
Precipitació (mm)
Nota sobre les dades: s'avisa a l'usuari de la provisionalitat i no oficialitat d'aquestes dades
Logo AVAMET blanc
Web allotjada a Sollutia
Llicència de Creative CommonsLa web d'AVAMET i els seus continguts estan subjectes a una llicència de
Reconeixement - No Comercial - Compartir igual
Últimes estacions:  Forcall (Ajuntament Soci), Sant Joanet (Soci), Marines (Soci), Vilallonga - Serpis (Soci), Sorita (AVAMET), Gorga (Soci) - - -